Arbor Hill, Iowa
Current Conditions -  °F | °C
As of 8:35 PM on Saturday 20 Dec 2014 (Local Time) from KPRO Reporting Station
Haze Haze  
Wind Chill: 28°   Ceiling: 900
Heat Index: 34°   Visibility: 5mi
Dew Point: 33°   Wind: 7mph
Humidity: 97%   Direction: 160°SSE
Pressure: 30.09"   Gusts: NA
Location:  41.5397°N, 94.299°W
Report Text: KPRO 210235Z AUTO 16006KT 5SM BR OVC009 01/01 A3009 RMK AO2 T00120008
Loading
Personal Weather Stations






























Interactive Weather Map New forecast layout! Learn more

10-Day Weather Forecast

Advertisements
Track Severe Weather on mobile